Aérodrome de Lacave le Frau

FR-0394 · Lot, Occitanie, 法国

罗盘
风向 的 Aérodrome de Lacave le Frau 13/31
风: 2 kt, 1 beaufort

1 kt

2 kt
改变
0 ft 1.000 2.000 3.000 4.000 5.000
CAVOK
METAR LFSL 240530Z AUTO VRB02KT CAVOK 12/12 Q1017 NOSIG

METAR Aérodrome de Lacave le Frau - FR-0394

Aérodrome de Lacave le Frau是,法国中的小机场。 该机场位于纬度44,84200和经度1,58844。 该机场有一条跑道: 13/31. 这个机场没有ICAO代码,我们使用FR-0394作为参考。 机场在Bordeaux FIR中。

该航空气象观测是针对Brive-Souillac在2024年6月24日 07:30, 当地时间进行的。

机场观察

可变方向的风很小或没有风。

天气为CAVOK。这意味着在5.000 ft或MSA(最低安全高度)以下(以较高者为准)以下没有云。这也意味着没有观测到积雨云或高耸的积云,可见度为10 km 或者更多或更高。此外,不会有雾,降雨或其他重要天气。

温度和风寒是12 °C。 露点为12 °C,相对湿度为100%。 海平面上的气压为1017 hPa (QNH)。

白天

今天,太阳从06:08升起,在21:43降落。 这适用于Aérodrome de Lacave le Frau,世界夏令时可能有所不同。 当地时间与世界标准时间之间的时差为+2 小时。 夏令时目前正在进行中。

公司介绍

我们没有关于这个机场的公司信息。

体会

到Vliegles.nl去找飞行课程,跳伞和其他飞行体验。 浏览页面,了解Aérodrome de Lacave le Frau附近所有可用的活动。 你也可以使用搜索功能来寻找你所在地附近的特定飞行课程、跳伞或其他飞行体验。

跑道

Id 标题 侧风 逆风 侧风 %
13/31 126°-306° 2 kt 1 kt 81 %

逆风成分最大的方向会被突出显示,并用于横风计算。 这并不一定意味着这个方向在使用。

温度 & 天气

温度 12 °C
露点 12 °C
相对湿度 100%
Kp-index 1 (0-9)

白天

日出
06:08
中午
13:56
日落
21:45 (13:49)

小工具

你想在你的网站上有一个关于Aérodrome de Lacave le Frau的当前航空天气(METAR)的小部件吗?

显示HTML代码
报告变更